Terminal Aerodrome Forecast
Issued by NWS

Home | Current Version | Previous Version | Text Only | Print | Product List | Glossary On
Versions: 1 2 3 4 5 6 7 8 9 10 11 12 13 14 15 16 17 18 19 20 21
000
FTUS43 KLSX 141100
TAFUIN
TAF
KUIN 141130Z 1412/1512 13006KT P6SM SCT080
     FM141400 16006KT P6SM BKN080
     FM141800 19006KT P6SM FEW040 SCT080
     FM150000 14005KT P6SM SCT100 BKN250
     FM150900 15005KT P6SM VCSH SCT040 BKN100=

USA.gov is the U.S. government's official web portal to all federal, state and local government web resources and services.